sensor_id;sensor_type;location;lat;lon;timestamp;P1;durP1;ratioP1;P2;durP2;ratioP2
33459;SDS011;19795;53.160;6.612;2022-12-18T07:18:27;30.85;;;15.02;;
33459;SDS011;19795;53.160;6.612;2022-12-18T07:23:28;38.42;;;16.52;;
33459;SDS011;19795;53.160;6.612;2022-12-18T07:25:54;29.58;;;15.35;;
33459;SDS011;19795;53.160;6.612;2022-12-18T07:28:19;33.92;;;15.63;;
33459;SDS011;19795;53.160;6.612;2022-12-18T07:30:45;20.25;;;10.88;;
33459;SDS011;19795;53.160;6.612;2022-12-18T07:33:10;30.88;;;15.52;;
33459;SDS011;19795;53.160;6.612;2022-12-18T07:35:36;30.05;;;15.38;;
33459;SDS011;19795;53.160;6.612;2022-12-18T07:38:02;31.42;;;15.85;;
33459;SDS011;19795;53.160;6.612;2022-12-18T07:40:27;37.67;;;15.70;;
33459;SDS011;19795;53.160;6.612;2022-12-18T07:42:53;36.70;;;16.10;;
33459;SDS011;19795;53.160;6.612;2022-12-18T07:45:18;34.75;;;14.88;;
33459;SDS011;19795;53.160;6.612;2022-12-18T07:47:44;27.95;;;12.07;;
33459;SDS011;19795;53.160;6.612;2022-12-18T07:50:10;30.02;;;14.43;;
33459;SDS011;19795;53.160;6.612;2022-12-18T07:52:36;25.58;;;13.25;;
33459;SDS011;19795;53.160;6.612;2022-12-18T07:55:02;28.95;;;14.77;;
33459;SDS011;19795;53.160;6.612;2022-12-18T07:57:27;33.60;;;16.33;;
33459;SDS011;19795;53.160;6.612;2022-12-18T07:59:53;33.33;;;15.07;;
33459;SDS011;19795;53.160;6.612;2022-12-18T08:02:19;31.13;;;14.90;;
33459;SDS011;19795;53.160;6.612;2022-12-18T08:04:44;31.80;;;15.00;;
33459;SDS011;19795;53.160;6.612;2022-12-18T08:07:10;30.17;;;14.52;;
33459;SDS011;19795;53.160;6.612;2022-12-18T08:09:35;26.20;;;13.07;;
33459;SDS011;19795;53.160;6.612;2022-12-18T08:12:01;29.95;;;14.45;;
33459;SDS011;19795;53.160;6.612;2022-12-18T08:14:27;33.80;;;15.68;;
33459;SDS011;19795;53.160;6.612;2022-12-18T08:16:52;31.27;;;14.38;;
33459;SDS011;19795;53.160;6.612;2022-12-18T08:19:18;30.50;;;13.70;;
33459;SDS011;19795;53.160;6.612;2022-12-18T08:21:44;27.70;;;12.13;;
33459;SDS011;19795;53.160;6.612;2022-12-18T08:24:09;35.50;;;15.88;;
33459;SDS011;19795;53.160;6.612;2022-12-18T08:26:36;29.48;;;15.00;;
33459;SDS011;19795;53.160;6.612;2022-12-18T08:29:01;30.73;;;14.30;;
33459;SDS011;19795;53.160;6.612;2022-12-18T08:31:29;27.48;;;12.48;;
33459;SDS011;19795;53.160;6.612;2022-12-18T08:33:55;32.72;;;15.52;;
33459;SDS011;19795;53.160;6.612;2022-12-18T08:36:21;30.20;;;15.05;;
33459;SDS011;19795;53.160;6.612;2022-12-18T08:38:47;31.45;;;15.18;;
33459;SDS011;19795;53.160;6.612;2022-12-18T08:41:13;23.83;;;13.23;;
33459;SDS011;19795;53.160;6.612;2022-12-18T08:43:41;24.42;;;11.80;;
33459;SDS011;19795;53.160;6.612;2022-12-18T08:46:26;26.95;;;13.30;;
33459;SDS011;19795;53.160;6.612;2022-12-18T08:48:52;31.23;;;16.25;;
33459;SDS011;19795;53.160;6.612;2022-12-18T08:51:20;28.38;;;14.68;;
33459;SDS011;19795;53.160;6.612;2022-12-18T08:53:46;32.70;;;14.48;;
33459;SDS011;19795;53.160;6.612;2022-12-18T08:56:12;27.05;;;14.68;;
33459;SDS011;19795;53.160;6.612;2022-12-18T08:58:39;30.83;;;15.00;;
33459;SDS011;19795;53.160;6.612;2022-12-18T09:01:06;26.52;;;14.07;;
33459;SDS011;19795;53.160;6.612;2022-12-18T09:03:34;27.83;;;14.60;;
33459;SDS011;19795;53.160;6.612;2022-12-18T09:06:00;32.85;;;14.07;;
33459;SDS011;19795;53.160;6.612;2022-12-18T09:08:26;28.63;;;14.38;;
33459;SDS011;19795;53.160;6.612;2022-12-18T09:10:52;23.33;;;12.00;;
33459;SDS011;19795;53.160;6.612;2022-12-18T09:13:18;29.38;;;14.43;;
33459;SDS011;19795;53.160;6.612;2022-12-18T09:15:45;29.73;;;13.98;;
33459;SDS011;19795;53.160;6.612;2022-12-18T09:18:13;27.65;;;14.15;;
33459;SDS011;19795;53.160;6.612;2022-12-18T09:20:40;25.48;;;13.35;;
33459;SDS011;19795;53.160;6.612;2022-12-18T09:23:06;25.35;;;13.90;;
33459;SDS011;19795;53.160;6.612;2022-12-18T09:25:32;26.90;;;13.57;;
33459;SDS011;19795;53.160;6.612;2022-12-18T09:28:00;25.20;;;12.75;;
33459;SDS011;19795;53.160;6.612;2022-12-18T09:30:28;25.35;;;12.40;;
33459;SDS011;19795;53.160;6.612;2022-12-18T09:32:53;24.55;;;12.48;;
33459;SDS011;19795;53.160;6.612;2022-12-18T09:35:19;31.08;;;14.05;;
33459;SDS011;19795;53.160;6.612;2022-12-18T09:37:45;19.40;;;9.57;;
33459;SDS011;19795;53.160;6.612;2022-12-18T09:40:14;23.15;;;11.85;;
33459;SDS011;19795;53.160;6.612;2022-12-18T09:42:44;22.08;;;12.63;;
33459;SDS011;19795;53.160;6.612;2022-12-18T09:45:15;23.13;;;12.05;;
33459;SDS011;19795;53.160;6.612;2022-12-18T09:47:42;21.80;;;11.30;;
33459;SDS011;19795;53.160;6.612;2022-12-18T09:52:58;19.45;;;10.13;;
33459;SDS011;19795;53.160;6.612;2022-12-18T09:58:00;14.32;;;7.30;;
33459;SDS011;19795;53.160;6.612;2022-12-18T10:00:31;17.90;;;9.25;;
33459;SDS011;19795;53.160;6.612;2022-12-18T10:03:02;20.33;;;10.70;;
33459;SDS011;19795;53.160;6.612;2022-12-18T10:08:46;19.15;;;9.30;;
33459;SDS011;19795;53.160;6.612;2022-12-18T10:11:25;18.83;;;9.57;;
33459;SDS011;19795;53.160;6.612;2022-12-18T10:25:52;15.68;;;8.30;;
33459;SDS011;19795;53.160;6.612;2022-12-18T10:28:28;18.63;;;9.02;;
33459;SDS011;19795;53.160;6.612;2022-12-18T10:30:56;10.82;;;5.65;;
33459;SDS011;19795;53.160;6.612;2022-12-18T10:33:24;14.80;;;7.97;;
33459;SDS011;19795;53.160;6.612;2022-12-18T10:35:53;14.20;;;7.88;;
33459;SDS011;19795;53.160;6.612;2022-12-18T10:46:07;13.95;;;8.15;;
33459;SDS011;19795;53.160;6.612;2022-12-18T10:48:50;12.27;;;6.53;;
33459;SDS011;19795;53.160;6.612;2022-12-18T10:51:27;9.57;;;4.78;;
33459;SDS011;19795;53.160;6.612;2022-12-18T10:54:18;15.63;;;7.40;;
33459;SDS011;19795;53.160;6.612;2022-12-18T10:56:47;10.52;;;5.47;;
33459;SDS011;19795;53.160;6.612;2022-12-18T10:59:14;11.48;;;5.20;;
33459;SDS011;19795;53.160;6.612;2022-12-18T11:01:49;11.57;;;6.97;;
33459;SDS011;19795;53.160;6.612;2022-12-18T11:04:34;9.05;;;5.13;;
33459;SDS011;19795;53.160;6.612;2022-12-18T11:07:08;12.02;;;6.45;;
33459;SDS011;19795;53.160;6.612;2022-12-18T11:09:36;13.10;;;6.70;;
33459;SDS011;19795;53.160;6.612;2022-12-18T11:12:04;10.95;;;4.05;;
33459;SDS011;19795;53.160;6.612;2022-12-18T11:14:53;13.20;;;6.45;;
33459;SDS011;19795;53.160;6.612;2022-12-18T11:17:31;12.05;;;6.75;;
33459;SDS011;19795;53.160;6.612;2022-12-18T11:20:00;13.55;;;5.95;;
33459;SDS011;19795;53.160;6.612;2022-12-18T11:22:32;13.93;;;6.03;;
33459;SDS011;19795;53.160;6.612;2022-12-18T11:27:48;11.85;;;6.50;;
33459;SDS011;19795;53.160;6.612;2022-12-18T11:32:47;9.57;;;5.65;;
33459;SDS011;19795;53.160;6.612;2022-12-18T11:35:18;13.32;;;6.32;;
33459;SDS011;19795;53.160;6.612;2022-12-18T11:37:52;11.43;;;5.32;;
33459;SDS011;19795;53.160;6.612;2022-12-18T11:40:42;12.52;;;6.13;;
33459;SDS011;19795;53.160;6.612;2022-12-18T11:45:48;12.98;;;5.82;;
33459;SDS011;19795;53.160;6.612;2022-12-18T11:48:24;11.80;;;5.78;;
33459;SDS011;19795;53.160;6.612;2022-12-18T11:50:57;11.23;;;5.13;;
33459;SDS011;19795;53.160;6.612;2022-12-18T11:53:25;15.38;;;5.60;;
33459;SDS011;19795;53.160;6.612;2022-12-18T12:01:16;11.27;;;5.05;;
33459;SDS011;19795;53.160;6.612;2022-12-18T12:10:02;12.55;;;5.50;;
33459;SDS011;19795;53.160;6.612;2022-12-18T12:12:39;14.10;;;6.47;;
33459;SDS011;19795;53.160;6.612;2022-12-18T12:15:24;12.65;;;5.55;;
33459;SDS011;19795;53.160;6.612;2022-12-18T12:23:44;10.73;;;5.28;;
33459;SDS011;19795;53.160;6.612;2022-12-18T12:29:28;11.15;;;5.20;;
33459;SDS011;19795;53.160;6.612;2022-12-18T12:38:03;6.30;;;3.97;;
33459;SDS011;19795;53.160;6.612;2022-12-18T12:40:35;8.82;;;4.88;;
33459;SDS011;19795;53.160;6.612;2022-12-18T12:43:12;8.30;;;3.75;;
33459;SDS011;19795;53.160;6.612;2022-12-18T12:45:46;9.68;;;4.47;;
33459;SDS011;19795;53.160;6.612;2022-12-18T12:49:02;9.35;;;4.68;;
33459;SDS011;19795;53.160;6.612;2022-12-18T12:53:54;9.88;;;4.25;;
33459;SDS011;19795;53.160;6.612;2022-12-18T12:56:22;8.45;;;4.63;;
33459;SDS011;19795;53.160;6.612;2022-12-18T12:59:02;9.05;;;3.97;;
33459;SDS011;19795;53.160;6.612;2022-12-18T13:07:12;10.88;;;4.93;;
33459;SDS011;19795;53.160;6.612;2022-12-18T13:12:36;10.77;;;4.13;;
33459;SDS011;19795;53.160;6.612;2022-12-18T13:15:39;7.03;;;4.13;;
33459;SDS011;19795;53.160;6.612;2022-12-18T13:20:37;10.80;;;4.40;;
33459;SDS011;19795;53.160;6.612;2022-12-18T13:25:52;9.90;;;4.68;;
33459;SDS011;19795;53.160;6.612;2022-12-18T13:28:49;8.13;;;3.72;;
33459;SDS011;19795;53.160;6.612;2022-12-18T13:31:09;9.23;;;4.15;;
33459;SDS011;19795;53.160;6.612;2022-12-18T13:33:40;9.00;;;3.65;;
33459;SDS011;19795;53.160;6.612;2022-12-18T13:39:10;12.50;;;5.20;;
33459;SDS011;19795;53.160;6.612;2022-12-18T13:44:32;9.93;;;4.93;;
33459;SDS011;19795;53.160;6.612;2022-12-18T13:46:59;9.10;;;5.22;;
33459;SDS011;19795;53.160;6.612;2022-12-18T13:49:38;5.25;;;2.50;;
33459;SDS011;19795;53.160;6.612;2022-12-18T13:55:02;11.73;;;5.20;;
33459;SDS011;19795;53.160;6.612;2022-12-18T13:57:33;11.02;;;4.85;;
33459;SDS011;19795;53.160;6.612;2022-12-18T14:02:47;9.73;;;4.95;;
33459;SDS011;19795;53.160;6.612;2022-12-18T14:08:03;8.73;;;5.05;;
33459;SDS011;19795;53.160;6.612;2022-12-18T14:10:32;11.10;;;5.38;;
33459;SDS011;19795;53.160;6.612;2022-12-18T14:13:02;9.20;;;5.32;;
33459;SDS011;19795;53.160;6.612;2022-12-18T14:15:34;13.98;;;5.07;;
33459;SDS011;19795;53.160;6.612;2022-12-18T14:20:50;10.93;;;5.38;;
33459;SDS011;19795;53.160;6.612;2022-12-18T14:23:34;11.55;;;4.97;;
33459;SDS011;19795;53.160;6.612;2022-12-18T14:28:54;12.48;;;5.80;;
33459;SDS011;19795;53.160;6.612;2022-12-18T14:31:27;12.70;;;5.63;;
33459;SDS011;19795;53.160;6.612;2022-12-18T14:33:54;12.95;;;5.40;;
33459;SDS011;19795;53.160;6.612;2022-12-18T14:36:24;14.07;;;6.05;;
33459;SDS011;19795;53.160;6.612;2022-12-18T14:38:53;11.73;;;5.85;;
33459;SDS011;19795;53.160;6.612;2022-12-18T14:41:20;15.10;;;5.55;;
33459;SDS011;19795;53.160;6.612;2022-12-18T14:43:48;12.40;;;6.15;;
33459;SDS011;19795;53.160;6.612;2022-12-18T14:51:58;15.25;;;7.05;;
33459;SDS011;19795;53.160;6.612;2022-12-18T14:54:29;12.13;;;6.72;;
33459;SDS011;19795;53.160;6.612;2022-12-18T14:57:03;16.02;;;6.53;;
33459;SDS011;19795;53.160;6.612;2022-12-18T14:59:30;10.38;;;5.75;;
33459;SDS011;19795;53.160;6.612;2022-12-18T15:01:58;16.42;;;8.45;;
33459;SDS011;19795;53.160;6.612;2022-12-18T15:07:03;11.95;;;6.30;;
33459;SDS011;19795;53.160;6.612;2022-12-18T15:09:36;12.52;;;6.72;;
33459;SDS011;19795;53.160;6.612;2022-12-18T15:12:03;13.30;;;6.50;;
33459;SDS011;19795;53.160;6.612;2022-12-18T15:16:55;12.13;;;6.10;;
33459;SDS011;19795;53.160;6.612;2022-12-18T15:19:24;15.95;;;6.90;;
33459;SDS011;19795;53.160;6.612;2022-12-18T15:22:24;13.27;;;6.95;;
33459;SDS011;19795;53.160;6.612;2022-12-18T15:24:55;10.77;;;6.53;;
33459;SDS011;19795;53.160;6.612;2022-12-18T15:27:24;14.20;;;6.57;;
33459;SDS011;19795;53.160;6.612;2022-12-18T15:32:35;11.55;;;5.28;;
33459;SDS011;19795;53.160;6.612;2022-12-18T15:37:47;13.00;;;7.43;;
33459;SDS011;19795;53.160;6.612;2022-12-18T15:40:15;14.30;;;7.20;;
33459;SDS011;19795;53.160;6.612;2022-12-18T15:42:42;14.63;;;7.15;;
33459;SDS011;19795;53.160;6.612;2022-12-18T15:45:27;12.25;;;6.22;;
33459;SDS011;19795;53.160;6.612;2022-12-18T15:47:53;14.02;;;6.60;;
33459;SDS011;19795;53.160;6.612;2022-12-18T15:50:19;13.35;;;7.40;;
33459;SDS011;19795;53.160;6.612;2022-12-18T15:52:45;13.20;;;5.63;;
33459;SDS011;19795;53.160;6.612;2022-12-18T15:55:18;17.20;;;7.15;;
33459;SDS011;19795;53.160;6.612;2022-12-18T15:58:06;9.13;;;4.90;;
33459;SDS011;19795;53.160;6.612;2022-12-18T16:00:33;13.88;;;7.18;;
33459;SDS011;19795;53.160;6.612;2022-12-18T16:03:01;11.57;;;5.38;;
33459;SDS011;19795;53.160;6.612;2022-12-18T16:05:28;22.33;;;10.07;;
33459;SDS011;19795;53.160;6.612;2022-12-18T16:07:54;19.90;;;7.60;;
33459;SDS011;19795;53.160;6.612;2022-12-18T16:10:19;14.95;;;7.38;;
33459;SDS011;19795;53.160;6.612;2022-12-18T16:12:45;14.10;;;6.47;;
33459;SDS011;19795;53.160;6.612;2022-12-18T16:15:15;11.52;;;6.10;;
33459;SDS011;19795;53.160;6.612;2022-12-18T16:17:41;13.10;;;7.20;;
33459;SDS011;19795;53.160;6.612;2022-12-18T16:20:18;15.60;;;7.38;;
33459;SDS011;19795;53.160;6.612;2022-12-18T16:22:45;14.75;;;7.05;;
33459;SDS011;19795;53.160;6.612;2022-12-18T16:27:48;13.45;;;6.93;;
33459;SDS011;19795;53.160;6.612;2022-12-18T16:30:15;14.77;;;7.43;;
33459;SDS011;19795;53.160;6.612;2022-12-18T16:32:44;14.25;;;7.05;;
33459;SDS011;19795;53.160;6.612;2022-12-18T16:35:14;12.48;;;6.95;;
33459;SDS011;19795;53.160;6.612;2022-12-18T16:37:43;12.43;;;7.47;;
33459;SDS011;19795;53.160;6.612;2022-12-18T16:40:10;17.50;;;7.43;;
33459;SDS011;19795;53.160;6.612;2022-12-18T16:42:38;15.85;;;7.85;;
33459;SDS011;19795;53.160;6.612;2022-12-18T16:45:05;16.52;;;7.55;;
33459;SDS011;19795;53.160;6.612;2022-12-18T16:47:32;20.42;;;8.10;;
33459;SDS011;19795;53.160;6.612;2022-12-18T16:49:59;15.25;;;7.97;;
33459;SDS011;19795;53.160;6.612;2022-12-18T16:52:24;11.32;;;5.60;;
33459;SDS011;19795;53.160;6.612;2022-12-18T16:54:50;13.85;;;7.68;;
33459;SDS011;19795;53.160;6.612;2022-12-18T16:57:17;10.75;;;5.75;;
33459;SDS011;19795;53.160;6.612;2022-12-18T16:59:44;14.00;;;7.72;;
33459;SDS011;19795;53.160;6.612;2022-12-18T17:02:15;14.27;;;6.72;;
33459;SDS011;19795;53.160;6.612;2022-12-18T17:04:42;14.07;;;6.60;;
33459;SDS011;19795;53.160;6.612;2022-12-18T17:07:09;13.48;;;7.18;;
33459;SDS011;19795;53.160;6.612;2022-12-18T17:09:35;15.00;;;6.45;;
33459;SDS011;19795;53.160;6.612;2022-12-18T17:12:01;12.48;;;6.75;;
33459;SDS011;19795;53.160;6.612;2022-12-18T17:14:27;14.68;;;7.00;;
33459;SDS011;19795;53.160;6.612;2022-12-18T17:16:53;17.33;;;6.85;;
33459;SDS011;19795;53.160;6.612;2022-12-18T17:19:19;16.67;;;7.50;;
33459;SDS011;19795;53.160;6.612;2022-12-18T17:21:47;9.63;;;5.20;;
33459;SDS011;19795;53.160;6.612;2022-12-18T17:24:13;14.20;;;7.38;;
33459;SDS011;19795;53.160;6.612;2022-12-18T17:26:39;16.60;;;7.05;;
33459;SDS011;19795;53.160;6.612;2022-12-18T17:29:05;15.20;;;6.97;;
33459;SDS011;19795;53.160;6.612;2022-12-18T17:31:32;12.77;;;6.88;;
33459;SDS011;19795;53.160;6.612;2022-12-18T17:33:59;13.07;;;6.38;;
33459;SDS011;19795;53.160;6.612;2022-12-18T17:36:26;11.00;;;5.47;;
33459;SDS011;19795;53.160;6.612;2022-12-18T17:38:56;11.98;;;6.53;;
33459;SDS011;19795;53.160;6.612;2022-12-18T17:41:24;11.75;;;5.93;;
33459;SDS011;19795;53.160;6.612;2022-12-18T17:43:51;12.70;;;6.13;;
33459;SDS011;19795;53.160;6.612;2022-12-18T17:46:18;14.20;;;6.82;;
33459;SDS011;19795;53.160;6.612;2022-12-18T17:48:44;14.32;;;6.82;;
33459;SDS011;19795;53.160;6.612;2022-12-18T17:51:13;13.00;;;7.07;;
33459;SDS011;19795;53.160;6.612;2022-12-18T17:53:40;14.00;;;6.72;;
33459;SDS011;19795;53.160;6.612;2022-12-18T17:56:06;13.23;;;6.80;;
33459;SDS011;19795;53.160;6.612;2022-12-18T17:58:35;14.15;;;7.30;;
33459;SDS011;19795;53.160;6.612;2022-12-18T18:01:01;13.55;;;6.63;;
33459;SDS011;19795;53.160;6.612;2022-12-18T18:03:30;14.27;;;7.72;;
33459;SDS011;19795;53.160;6.612;2022-12-18T18:05:59;10.52;;;4.55;;
33459;SDS011;19795;53.160;6.612;2022-12-18T18:08:26;14.70;;;5.95;;
33459;SDS011;19795;53.160;6.612;2022-12-18T18:10:53;13.52;;;6.70;;
33459;SDS011;19795;53.160;6.612;2022-12-18T18:13:20;13.00;;;6.43;;
33459;SDS011;19795;53.160;6.612;2022-12-18T18:16:07;12.13;;;6.50;;
33459;SDS011;19795;53.160;6.612;2022-12-18T18:18:33;15.25;;;7.90;;
33459;SDS011;19795;53.160;6.612;2022-12-18T18:21:06;13.27;;;5.95;;
33459;SDS011;19795;53.160;6.612;2022-12-18T18:23:33;13.87;;;5.23;;
33459;SDS011;19795;53.160;6.612;2022-12-18T18:26:03;11.55;;;5.57;;
33459;SDS011;19795;53.160;6.612;2022-12-18T18:28:29;14.07;;;6.60;;
33459;SDS011;19795;53.160;6.612;2022-12-18T18:30:55;12.52;;;6.63;;
33459;SDS011;19795;53.160;6.612;2022-12-18T18:33:21;14.82;;;7.40;;
33459;SDS011;19795;53.160;6.612;2022-12-18T18:35:47;14.40;;;6.93;;
33459;SDS011;19795;53.160;6.612;2022-12-18T18:38:12;17.27;;;7.60;;
33459;SDS011;19795;53.160;6.612;2022-12-18T18:40:38;12.38;;;6.55;;
33459;SDS011;19795;53.160;6.612;2022-12-18T18:43:03;13.88;;;6.57;;
33459;SDS011;19795;53.160;6.612;2022-12-18T18:45:29;14.10;;;6.32;;
33459;SDS011;19795;53.160;6.612;2022-12-18T18:47:55;12.40;;;6.47;;
33459;SDS011;19795;53.160;6.612;2022-12-18T18:50:20;14.68;;;6.35;;
33459;SDS011;19795;53.160;6.612;2022-12-18T18:52:46;14.30;;;6.60;;
33459;SDS011;19795;53.160;6.612;2022-12-18T18:55:11;14.25;;;6.60;;
33459;SDS011;19795;53.160;6.612;2022-12-18T18:57:37;13.18;;;6.70;;
33459;SDS011;19795;53.160;6.612;2022-12-18T19:00:03;17.73;;;7.68;;
33459;SDS011;19795;53.160;6.612;2022-12-18T19:02:29;17.35;;;7.25;;
33459;SDS011;19795;53.160;6.612;2022-12-18T19:04:55;10.88;;;5.43;;
33459;SDS011;19795;53.160;6.612;2022-12-18T19:07:21;10.98;;;6.30;;
33459;SDS011;19795;53.160;6.612;2022-12-18T19:09:47;13.48;;;6.50;;
33459;SDS011;19795;53.160;6.612;2022-12-18T19:12:16;15.82;;;6.70;;
33459;SDS011;19795;53.160;6.612;2022-12-18T19:15:00;11.52;;;5.68;;
33459;SDS011;19795;53.160;6.612;2022-12-18T19:17:26;10.50;;;5.55;;
33459;SDS011;19795;53.160;6.612;2022-12-18T19:19:52;11.13;;;5.15;;
33459;SDS011;19795;53.160;6.612;2022-12-18T19:22:18;14.25;;;6.75;;
33459;SDS011;19795;53.160;6.612;2022-12-18T19:24:44;12.73;;;6.32;;
33459;SDS011;19795;53.160;6.612;2022-12-18T19:27:09;11.15;;;5.60;;
33459;SDS011;19795;53.160;6.612;2022-12-18T19:29:35;12.68;;;6.88;;
33459;SDS011;19795;53.160;6.612;2022-12-18T19:32:01;13.32;;;7.22;;
33459;SDS011;19795;53.160;6.612;2022-12-18T19:34:27;13.18;;;6.65;;
33459;SDS011;19795;53.160;6.612;2022-12-18T19:36:53;17.15;;;8.15;;
33459;SDS011;19795;53.160;6.612;2022-12-18T19:39:18;15.18;;;6.78;;
33459;SDS011;19795;53.160;6.612;2022-12-18T19:41:45;14.02;;;7.20;;
33459;SDS011;19795;53.160;6.612;2022-12-18T19:44:12;14.07;;;6.70;;
33459;SDS011;19795;53.160;6.612;2022-12-18T19:46:39;12.95;;;6.55;;
33459;SDS011;19795;53.160;6.612;2022-12-18T19:49:06;11.85;;;6.90;;
33459;SDS011;19795;53.160;6.612;2022-12-18T19:51:34;14.70;;;7.45;;
33459;SDS011;19795;53.160;6.612;2022-12-18T19:54:00;14.13;;;6.93;;
33459;SDS011;19795;53.160;6.612;2022-12-18T19:56:26;14.05;;;7.20;;
33459;SDS011;19795;53.160;6.612;2022-12-18T19:58:54;16.27;;;7.72;;
33459;SDS011;19795;53.160;6.612;2022-12-18T20:01:20;15.35;;;7.88;;
33459;SDS011;19795;53.160;6.612;2022-12-18T20:03:48;12.63;;;7.13;;
33459;SDS011;19795;53.160;6.612;2022-12-18T20:06:25;17.85;;;9.07;;
33459;SDS011;19795;53.160;6.612;2022-12-18T20:08:53;14.68;;;8.55;;
33459;SDS011;19795;53.160;6.612;2022-12-18T20:11:20;15.48;;;7.28;;
33459;SDS011;19795;53.160;6.612;2022-12-18T20:13:46;16.58;;;8.40;;
33459;SDS011;19795;53.160;6.612;2022-12-18T20:16:11;23.00;;;8.85;;
33459;SDS011;19795;53.160;6.612;2022-12-18T20:18:37;16.65;;;8.30;;
33459;SDS011;19795;53.160;6.612;2022-12-18T20:21:03;16.27;;;8.07;;
33459;SDS011;19795;53.160;6.612;2022-12-18T20:23:29;16.58;;;8.50;;
33459;SDS011;19795;53.160;6.612;2022-12-18T20:25:55;14.15;;;7.80;;
33459;SDS011;19795;53.160;6.612;2022-12-18T20:28:21;22.63;;;9.05;;
33459;SDS011;19795;53.160;6.612;2022-12-18T20:30:47;18.92;;;9.80;;
33459;SDS011;19795;53.160;6.612;2022-12-18T20:33:13;20.05;;;9.30;;
33459;SDS011;19795;53.160;6.612;2022-12-18T20:35:39;17.23;;;8.63;;
33459;SDS011;19795;53.160;6.612;2022-12-18T20:38:05;19.45;;;9.48;;
33459;SDS011;19795;53.160;6.612;2022-12-18T20:40:31;15.50;;;9.00;;
33459;SDS011;19795;53.160;6.612;2022-12-18T20:42:57;18.20;;;9.45;;
33459;SDS011;19795;53.160;6.612;2022-12-18T20:45:23;18.85;;;9.32;;
33459;SDS011;19795;53.160;6.612;2022-12-18T20:47:49;19.52;;;9.57;;
33459;SDS011;19795;53.160;6.612;2022-12-18T20:50:18;18.15;;;9.25;;
33459;SDS011;19795;53.160;6.612;2022-12-18T20:52:43;18.80;;;10.13;;
33459;SDS011;19795;53.160;6.612;2022-12-18T20:55:11;13.07;;;6.70;;
33459;SDS011;19795;53.160;6.612;2022-12-18T20:57:36;19.55;;;10.32;;
33459;SDS011;19795;53.160;6.612;2022-12-18T21:00:03;18.02;;;9.45;;
33459;SDS011;19795;53.160;6.612;2022-12-18T21:02:29;17.17;;;9.85;;
33459;SDS011;19795;53.160;6.612;2022-12-18T21:04:54;20.92;;;11.48;;
33459;SDS011;19795;53.160;6.612;2022-12-18T21:07:20;21.38;;;11.10;;
33459;SDS011;19795;53.160;6.612;2022-12-18T21:09:46;19.90;;;10.50;;
33459;SDS011;19795;53.160;6.612;2022-12-18T21:12:12;21.40;;;11.15;;
33459;SDS011;19795;53.160;6.612;2022-12-18T21:14:57;19.17;;;10.32;;
33459;SDS011;19795;53.160;6.612;2022-12-18T21:17:26;20.25;;;10.70;;
33459;SDS011;19795;53.160;6.612;2022-12-18T21:19:52;21.30;;;10.80;;
33459;SDS011;19795;53.160;6.612;2022-12-18T21:22:18;19.58;;;10.55;;
33459;SDS011;19795;53.160;6.612;2022-12-18T21:24:43;21.70;;;10.60;;
33459;SDS011;19795;53.160;6.612;2022-12-18T21:27:09;27.38;;;12.65;;
33459;SDS011;19795;53.160;6.612;2022-12-18T21:29:35;23.02;;;11.38;;
33459;SDS011;19795;53.160;6.612;2022-12-18T21:32:01;25.23;;;12.20;;
33459;SDS011;19795;53.160;6.612;2022-12-18T21:34:28;23.83;;;12.10;;
33459;SDS011;19795;53.160;6.612;2022-12-18T21:36:55;22.42;;;11.77;;
33459;SDS011;19795;53.160;6.612;2022-12-18T21:39:23;21.05;;;12.25;;
33459;SDS011;19795;53.160;6.612;2022-12-18T21:41:49;22.80;;;11.35;;
33459;SDS011;19795;53.160;6.612;2022-12-18T21:46:59;23.52;;;11.80;;
33459;SDS011;19795;53.160;6.612;2022-12-18T21:49:25;23.23;;;11.60;;
33459;SDS011;19795;53.160;6.612;2022-12-18T21:51:52;21.33;;;12.10;;
33459;SDS011;19795;53.160;6.612;2022-12-18T21:54:22;25.17;;;12.77;;
33459;SDS011;19795;53.160;6.612;2022-12-18T21:56:55;26.27;;;13.52;;
33459;SDS011;19795;53.160;6.612;2022-12-18T21:59:27;24.55;;;12.40;;
33459;SDS011;19795;53.160;6.612;2022-12-18T22:01:55;23.00;;;12.30;;
33459;SDS011;19795;53.160;6.612;2022-12-18T22:04:23;23.40;;;12.48;;
33459;SDS011;19795;53.160;6.612;2022-12-18T22:06:49;26.13;;;12.32;;
33459;SDS011;19795;53.160;6.612;2022-12-18T22:09:17;24.52;;;13.00;;
33459;SDS011;19795;53.160;6.612;2022-12-18T22:11:44;24.77;;;13.35;;
33459;SDS011;19795;53.160;6.612;2022-12-18T22:14:10;23.17;;;12.30;;
33459;SDS011;19795;53.160;6.612;2022-12-18T22:16:37;28.42;;;13.52;;
33459;SDS011;19795;53.160;6.612;2022-12-18T22:19:03;25.63;;;13.98;;
33459;SDS011;19795;53.160;6.612;2022-12-18T22:21:33;28.38;;;13.65;;
33459;SDS011;19795;53.160;6.612;2022-12-18T22:24:05;27.73;;;14.20;;
33459;SDS011;19795;53.160;6.612;2022-12-18T22:26:33;28.83;;;12.95;;
33459;SDS011;19795;53.160;6.612;2022-12-18T22:29:00;30.60;;;14.85;;
33459;SDS011;19795;53.160;6.612;2022-12-18T22:34:10;29.60;;;14.60;;
33459;SDS011;19795;53.160;6.612;2022-12-18T22:36:36;31.60;;;15.45;;
33459;SDS011;19795;53.160;6.612;2022-12-18T22:39:08;31.08;;;15.00;;
33459;SDS011;19795;53.160;6.612;2022-12-18T22:41:37;31.33;;;15.40;;
33459;SDS011;19795;53.160;6.612;2022-12-18T22:44:03;29.08;;;15.27;;
33459;SDS011;19795;53.160;6.612;2022-12-18T22:46:29;29.52;;;14.93;;
33459;SDS011;19795;53.160;6.612;2022-12-18T22:48:57;31.35;;;16.70;;
33459;SDS011;19795;53.160;6.612;2022-12-18T22:51:23;31.15;;;16.17;;
33459;SDS011;19795;53.160;6.612;2022-12-18T22:53:49;34.55;;;15.00;;
33459;SDS011;19795;53.160;6.612;2022-12-18T22:56:15;33.17;;;16.45;;
33459;SDS011;19795;53.160;6.612;2022-12-18T22:58:40;35.58;;;16.70;;
33459;SDS011;19795;53.160;6.612;2022-12-18T23:01:06;31.23;;;16.77;;
33459;SDS011;19795;53.160;6.612;2022-12-18T23:03:41;34.67;;;17.23;;
33459;SDS011;19795;53.160;6.612;2022-12-18T23:06:07;31.58;;;17.13;;
33459;SDS011;19795;53.160;6.612;2022-12-18T23:08:34;35.22;;;17.52;;
33459;SDS011;19795;53.160;6.612;2022-12-18T23:11:03;34.42;;;16.45;;
33459;SDS011;19795;53.160;6.612;2022-12-18T23:13:29;31.52;;;17.30;;
33459;SDS011;19795;53.160;6.612;2022-12-18T23:15:56;38.03;;;17.80;;
33459;SDS011;19795;53.160;6.612;2022-12-18T23:18:21;31.67;;;15.95;;
33459;SDS011;19795;53.160;6.612;2022-12-18T23:20:47;32.40;;;17.40;;
33459;SDS011;19795;53.160;6.612;2022-12-18T23:23:13;35.50;;;18.05;;
33459;SDS011;19795;53.160;6.612;2022-12-18T23:25:38;27.88;;;13.80;;
33459;SDS011;19795;53.160;6.612;2022-12-18T23:28:04;30.10;;;15.90;;
33459;SDS011;19795;53.160;6.612;2022-12-18T23:30:30;35.78;;;17.75;;
33459;SDS011;19795;53.160;6.612;2022-12-18T23:32:56;32.15;;;16.45;;
33459;SDS011;19795;53.160;6.612;2022-12-18T23:35:22;32.15;;;16.02;;
33459;SDS011;19795;53.160;6.612;2022-12-18T23:37:48;32.72;;;16.45;;
33459;SDS011;19795;53.160;6.612;2022-12-18T23:40:14;30.77;;;17.02;;
33459;SDS011;19795;53.160;6.612;2022-12-18T23:42:40;41.72;;;18.50;;
33459;SDS011;19795;53.160;6.612;2022-12-18T23:45:06;32.67;;;16.13;;
33459;SDS011;19795;53.160;6.612;2022-12-18T23:47:32;32.85;;;16.17;;
33459;SDS011;19795;53.160;6.612;2022-12-18T23:49:57;36.83;;;18.45;;
33459;SDS011;19795;53.160;6.612;2022-12-18T23:52:23;33.65;;;16.85;;
33459;SDS011;19795;53.160;6.612;2022-12-18T23:54:49;34.30;;;17.33;;
33459;SDS011;19795;53.160;6.612;2022-12-18T23:57:14;33.60;;;18.13;;
33459;SDS011;19795;53.160;6.612;2022-12-18T23:59:41;33.05;;;18.48;;
